createdAt,value
2018-05-23T00:02:17.353Z,17.10
2018-05-23T00:04:44.826Z,17.10
2018-05-23T00:07:12.267Z,17.00
2018-05-23T00:09:39.737Z,17.00
2018-05-23T00:12:07.204Z,17.00
2018-05-23T00:14:34.648Z,17.00
2018-05-23T00:17:02.220Z,17.00
2018-05-23T00:19:29.990Z,17.00
2018-05-23T00:21:57.471Z,16.90
2018-05-23T00:24:24.941Z,16.90
2018-05-23T00:26:52.459Z,16.90
2018-05-23T00:29:19.923Z,16.90
2018-05-23T00:31:47.379Z,16.90
2018-05-23T00:34:14.815Z,16.90
2018-05-23T00:36:42.629Z,16.90
2018-05-23T00:39:10.122Z,16.80
2018-05-23T00:41:37.593Z,16.80
2018-05-23T00:44:05.044Z,16.80
2018-05-23T00:46:32.487Z,16.80
2018-05-23T00:49:00.021Z,16.80
2018-05-23T00:51:27.481Z,16.80
2018-05-23T00:53:54.949Z,16.80
2018-05-23T00:56:22.391Z,16.80
2018-05-23T00:58:49.839Z,16.80
2018-05-23T01:01:17.316Z,16.80
2018-05-23T01:03:44.792Z,16.70
2018-05-23T01:06:12.260Z,16.70
2018-05-23T01:08:39.725Z,16.70
2018-05-23T01:11:07.178Z,16.80
2018-05-23T01:13:34.645Z,16.80
2018-05-23T01:16:02.093Z,16.80
2018-05-23T01:18:29.543Z,16.80
2018-05-23T01:20:57.216Z,16.80
2018-05-23T01:23:24.689Z,16.80
2018-05-23T01:25:52.161Z,16.80
2018-05-23T01:28:19.691Z,16.80
2018-05-23T01:30:47.484Z,16.80
2018-05-23T01:33:14.929Z,16.70
2018-05-23T01:35:42.399Z,16.70
2018-05-23T01:38:09.881Z,16.70
2018-05-23T01:40:37.565Z,16.70
2018-05-23T01:43:05.045Z,16.60
2018-05-23T01:45:32.513Z,16.70
2018-05-23T01:47:59.944Z,16.60
2018-05-23T01:50:27.408Z,16.60
2018-05-23T01:52:54.869Z,16.60
2018-05-23T01:55:22.350Z,16.60
2018-05-23T01:57:49.805Z,16.50
2018-05-23T02:00:17.244Z,16.50
2018-05-23T02:02:44.739Z,16.50
2018-05-23T02:05:12.606Z,16.50
2018-05-23T02:07:40.084Z,16.50
2018-05-23T02:10:07.867Z,16.50
2018-05-23T02:12:35.394Z,16.50
2018-05-23T02:15:02.853Z,16.50
2018-05-23T02:17:30.309Z,16.40
2018-05-23T02:19:58.058Z,16.40
2018-05-23T02:22:25.524Z,16.40
2018-05-23T02:24:52.996Z,16.50
2018-05-23T02:27:20.519Z,16.50
2018-05-23T02:29:47.964Z,16.50
2018-05-23T02:32:15.486Z,16.50
2018-05-23T02:34:42.949Z,16.50
2018-05-23T02:37:10.392Z,16.50
2018-05-23T02:39:37.903Z,16.60
2018-05-23T02:42:05.352Z,16.60
2018-05-23T02:44:32.817Z,16.60
2018-05-23T02:47:00.369Z,16.60
2018-05-23T02:49:27.718Z,16.60
2018-05-23T02:51:55.185Z,16.60
2018-05-23T02:54:22.645Z,16.60
2018-05-23T02:56:50.088Z,16.50
2018-05-23T02:59:17.563Z,16.50
2018-05-23T03:01:45.018Z,16.50
2018-05-23T03:04:12.498Z,16.50
2018-05-23T03:06:39.944Z,16.50
2018-05-23T03:09:07.393Z,16.50
2018-05-23T03:11:34.897Z,16.50
2018-05-23T03:14:02.335Z,16.50
2018-05-23T03:16:29.799Z,16.60
2018-05-23T03:18:57.240Z,16.60
2018-05-23T03:21:24.896Z,16.50
2018-05-23T03:23:52.363Z,16.60
2018-05-23T03:26:19.813Z,16.60
2018-05-23T03:28:47.517Z,16.60
2018-05-23T03:31:15.005Z,16.60
2018-05-23T03:33:42.446Z,16.50
2018-05-23T03:36:09.891Z,16.50
2018-05-23T03:38:37.373Z,16.40
2018-05-23T03:41:04.816Z,16.40
2018-05-23T03:43:32.276Z,16.50
2018-05-23T03:45:59.728Z,16.50
2018-05-23T03:48:27.182Z,16.50
2018-05-23T03:50:54.624Z,16.50
2018-05-23T03:53:22.094Z,16.50
2018-05-23T03:55:49.531Z,16.50
2018-05-23T03:58:17.053Z,16.50
2018-05-23T04:00:56.344Z,16.50
2018-05-23T04:03:35.655Z,16.60
2018-05-23T04:06:14.954Z,16.60
2018-05-23T04:08:42.404Z,16.60
2018-05-23T04:11:10.383Z,16.60
2018-05-23T04:13:37.844Z,16.60
2018-05-23T04:16:05.289Z,16.70
2018-05-23T04:18:32.727Z,16.70
2018-05-23T04:21:00.180Z,16.70
2018-05-23T04:23:28.540Z,16.80
2018-05-23T04:25:56.383Z,16.80
2018-05-23T04:28:24.267Z,16.90
2018-05-23T04:30:51.717Z,16.90
2018-05-23T04:33:19.616Z,16.90
2018-05-23T04:35:47.089Z,16.90
2018-05-23T04:38:14.600Z,16.90
2018-05-23T04:40:42.044Z,17.00
2018-05-23T04:43:09.505Z,17.00
2018-05-23T04:45:36.942Z,17.00
2018-05-23T04:48:04.390Z,17.00
2018-05-23T04:50:31.849Z,17.00
2018-05-23T04:52:59.287Z,17.10
2018-05-23T04:55:26.755Z,17.10
2018-05-23T04:57:54.225Z,17.20
2018-05-23T05:00:21.677Z,17.20
2018-05-23T05:02:49.137Z,17.20
2018-05-23T05:05:16.615Z,17.30
2018-05-23T05:07:44.277Z,17.30
2018-05-23T05:10:11.936Z,17.30
2018-05-23T05:12:39.405Z,17.30
2018-05-23T05:15:06.844Z,17.40
2018-05-23T05:17:34.309Z,17.40
2018-05-23T05:20:01.854Z,17.40
2018-05-23T05:22:29.291Z,17.40
2018-05-23T05:24:56.784Z,17.40
2018-05-23T05:27:24.538Z,17.40
2018-05-23T05:29:52.107Z,17.40
2018-05-23T05:32:19.544Z,17.50
2018-05-23T05:34:47.356Z,17.50
2018-05-23T05:37:15.228Z,17.40
2018-05-23T05:39:42.671Z,17.40
2018-05-23T05:42:10.131Z,17.40
2018-05-23T05:44:37.638Z,17.40
2018-05-23T05:47:05.067Z,17.40
2018-05-23T05:49:32.527Z,17.30
2018-05-23T05:52:00.402Z,17.40
2018-05-23T05:54:27.846Z,17.40
2018-05-23T05:56:55.347Z,17.40
2018-05-23T05:59:22.811Z,17.40
2018-05-23T06:01:50.255Z,17.50
2018-05-23T06:04:17.729Z,17.50
2018-05-23T06:06:45.262Z,17.40
2018-05-23T06:09:12.727Z,17.40
2018-05-23T06:11:40.184Z,17.30
2018-05-23T06:14:07.617Z,17.30
2018-05-23T06:16:35.094Z,17.30
2018-05-23T06:19:02.553Z,17.30
2018-05-23T06:21:30.099Z,17.30
2018-05-23T06:23:58.317Z,17.20
2018-05-23T06:26:25.756Z,17.20
2018-05-23T06:28:53.211Z,17.20
2018-05-23T06:31:20.665Z,17.10
2018-05-23T06:33:48.139Z,17.10
2018-05-23T06:36:15.584Z,17.10
2018-05-23T06:38:43.024Z,17.20
2018-05-23T06:41:10.476Z,17.20
2018-05-23T06:43:37.989Z,17.30
2018-05-23T06:46:05.873Z,17.40
2018-05-23T06:48:33.292Z,17.50
2018-05-23T06:51:01.035Z,17.70
2018-05-23T06:53:28.585Z,17.80
2018-05-23T06:55:56.030Z,17.90
2018-05-23T06:58:23.495Z,18.00
2018-05-23T07:00:51.395Z,18.20
2018-05-23T07:03:18.831Z,18.30
2018-05-23T07:05:46.314Z,18.40
2018-05-23T07:08:13.720Z,18.40
2018-05-23T07:10:42.066Z,18.50
2018-05-23T07:13:09.503Z,18.50
2018-05-23T07:15:36.982Z,18.50
2018-05-23T07:18:04.434Z,18.50
2018-05-23T07:20:31.872Z,18.50
2018-05-23T07:22:59.335Z,18.40
2018-05-23T07:25:26.780Z,18.30
2018-05-23T07:27:54.215Z,18.30
2018-05-23T07:30:22.449Z,18.30
2018-05-23T07:32:49.893Z,18.30
2018-05-23T07:35:17.354Z,18.30
2018-05-23T07:37:44.791Z,18.30
2018-05-23T07:40:12.231Z,18.20
2018-05-23T07:42:40.913Z,18.20
2018-05-23T07:45:08.336Z,18.10
2018-05-23T07:47:35.782Z,18.10
2018-05-23T07:50:03.249Z,18.10
2018-05-23T07:52:30.728Z,18.00
2018-05-23T07:54:58.187Z,18.10
2018-05-23T07:57:25.627Z,18.10
2018-05-23T07:59:53.080Z,18.10
2018-05-23T08:02:20.979Z,18.20
2018-05-23T08:04:48.438Z,18.20
2018-05-23T08:07:15.904Z,18.20
2018-05-23T08:09:43.359Z,18.20
2018-05-23T08:12:10.843Z,18.30
2018-05-23T08:14:38.304Z,18.30
2018-05-23T08:17:05.765Z,18.30
2018-05-23T08:19:33.212Z,18.30
2018-05-23T08:22:00.699Z,18.40
2018-05-23T08:24:28.174Z,18.40
2018-05-23T08:26:55.606Z,18.50
2018-05-23T08:29:23.065Z,18.50
2018-05-23T08:31:50.524Z,18.60
2018-05-23T08:34:18.007Z,18.70
2018-05-23T08:36:45.435Z,18.80
2018-05-23T08:39:12.888Z,18.90
2018-05-23T08:41:40.400Z,19.00
2018-05-23T08:44:07.871Z,19.10
2018-05-23T08:46:35.325Z,19.30
2018-05-23T08:49:02.823Z,19.40
2018-05-23T08:51:30.297Z,19.40
2018-05-23T08:53:57.742Z,19.60
2018-05-23T08:56:25.187Z,19.60
2018-05-23T08:58:52.642Z,19.70
2018-05-23T09:01:20.100Z,19.70
2018-05-23T09:03:47.536Z,19.70
2018-05-23T09:06:14.995Z,19.60
2018-05-23T09:08:42.439Z,19.60
2018-05-23T09:11:09.888Z,19.60
2018-05-23T09:13:37.408Z,19.50
2018-05-23T09:16:04.850Z,19.40
2018-05-23T09:18:32.312Z,19.30
2018-05-23T09:20:59.771Z,19.20
2018-05-23T09:23:27.228Z,19.20
2018-05-23T09:25:54.689Z,19.20
2018-05-23T09:28:22.224Z,19.30
2018-05-23T09:30:49.672Z,19.40
2018-05-23T09:33:17.128Z,19.40
2018-05-23T09:35:44.588Z,19.50
2018-05-23T09:38:12.331Z,19.60
2018-05-23T09:40:39.788Z,19.70
2018-05-23T09:43:07.335Z,19.90
2018-05-23T09:45:34.782Z,20.00
2018-05-23T09:48:02.335Z,20.20
2018-05-23T09:50:30.060Z,20.30
2018-05-23T09:52:57.580Z,20.30
2018-05-23T09:55:25.024Z,20.50
2018-05-23T09:57:52.471Z,20.90
2018-05-23T10:00:25.720Z,21.60
2018-05-23T10:02:53.170Z,22.70
2018-05-23T10:05:20.611Z,23.70
2018-05-23T10:07:48.051Z,24.60
2018-05-23T10:10:15.555Z,25.20
2018-05-23T10:12:43.222Z,25.80
2018-05-23T10:15:10.671Z,25.60
2018-05-23T10:17:38.154Z,25.00
2018-05-23T10:20:05.811Z,24.50
2018-05-23T10:22:33.270Z,24.10
2018-05-23T10:25:00.810Z,23.80
2018-05-23T10:27:28.258Z,23.60
2018-05-23T10:29:56.009Z,23.80
2018-05-23T10:32:23.590Z,24.40
2018-05-23T10:34:51.379Z,25.40
2018-05-23T10:37:18.851Z,26.60
2018-05-23T10:39:46.670Z,27.80
2018-05-23T10:42:14.126Z,28.00
2018-05-23T10:44:41.652Z,27.80
2018-05-23T10:47:09.350Z,27.80
2018-05-23T10:49:37.809Z,27.90
2018-05-23T10:52:05.274Z,27.80
2018-05-23T10:54:32.736Z,28.20
2018-05-23T10:57:00.238Z,28.90
2018-05-23T10:59:27.614Z,29.40
2018-05-23T11:01:55.085Z,29.90
2018-05-23T11:04:22.530Z,30.60
2018-05-23T11:06:50.037Z,31.20
2018-05-23T11:09:17.508Z,31.30
2018-05-23T11:11:44.964Z,31.40
2018-05-23T11:14:12.399Z,31.90
2018-05-23T11:16:39.859Z,32.30
2018-05-23T11:19:07.345Z,32.30
2018-05-23T11:21:34.817Z,32.10
2018-05-23T11:24:02.274Z,31.70
2018-05-23T11:26:29.726Z,31.70
2018-05-23T11:28:57.259Z,32.20
2018-05-23T11:31:24.945Z,32.70
2018-05-23T11:33:52.585Z,33.10
2018-05-23T11:36:20.009Z,33.50
2018-05-23T11:38:47.754Z,33.50
2018-05-23T11:41:15.228Z,33.90
2018-05-23T11:43:42.673Z,34.00
2018-05-23T11:46:10.143Z,33.80
2018-05-23T11:48:37.570Z,33.70
2018-05-23T11:51:05.003Z,34.00
2018-05-23T11:53:32.463Z,34.10
2018-05-23T11:55:59.917Z,34.20
2018-05-23T11:58:27.380Z,34.40
2018-05-23T12:00:54.820Z,34.70
2018-05-23T12:03:22.261Z,34.60
2018-05-23T12:05:49.932Z,34.80
2018-05-23T12:08:17.375Z,34.80
2018-05-23T12:10:44.889Z,34.80
2018-05-23T12:13:12.500Z,34.20
2018-05-23T12:15:39.937Z,33.00
2018-05-23T12:18:07.402Z,32.90
2018-05-23T12:20:35.074Z,33.60
2018-05-23T12:23:02.508Z,33.80
2018-05-23T12:25:29.939Z,34.00
2018-05-23T12:27:57.384Z,34.00
2018-05-23T12:30:24.951Z,34.30
2018-05-23T12:32:52.400Z,34.70
2018-05-23T12:35:19.881Z,35.20
2018-05-23T12:37:47.333Z,35.50
2018-05-23T12:40:14.793Z,35.50
2018-05-23T12:42:42.269Z,35.20
2018-05-23T12:45:09.703Z,35.40
2018-05-23T12:47:37.169Z,36.10
2018-05-23T12:50:04.612Z,36.50
2018-05-23T12:52:32.065Z,36.80
2018-05-23T12:54:59.529Z,36.50
2018-05-23T12:57:26.986Z,35.90
2018-05-23T12:59:54.448Z,35.00
2018-05-23T13:02:21.892Z,34.70
2018-05-23T13:04:49.329Z,34.80
2018-05-23T13:07:16.786Z,35.10
2018-05-23T13:09:44.242Z,35.30
2018-05-23T13:12:11.736Z,35.70
2018-05-23T13:14:39.193Z,36.00
2018-05-23T13:17:06.633Z,36.40
2018-05-23T13:19:34.095Z,36.80
2018-05-23T13:22:01.531Z,37.00
2018-05-23T13:24:28.989Z,37.10
2018-05-23T13:26:56.423Z,37.00
2018-05-23T13:29:23.879Z,36.70
2018-05-23T13:31:51.355Z,36.80
2018-05-23T13:34:18.852Z,36.30
2018-05-23T13:36:46.785Z,35.50
2018-05-23T13:39:14.367Z,34.90
2018-05-23T13:41:41.831Z,35.30
2018-05-23T13:44:09.279Z,35.10
2018-05-23T13:46:36.732Z,34.90
2018-05-23T13:49:04.184Z,35.30
2018-05-23T13:51:31.633Z,35.50
2018-05-23T13:53:59.169Z,35.70
2018-05-23T13:56:26.650Z,35.70
2018-05-23T13:58:54.088Z,35.70
2018-05-23T14:01:21.564Z,35.60
2018-05-23T14:03:48.999Z,35.80
2018-05-23T14:06:16.444Z,36.20
2018-05-23T14:08:43.911Z,36.60
2018-05-23T14:11:11.453Z,37.00
2018-05-23T14:13:39.107Z,37.10
2018-05-23T14:16:06.562Z,36.80
2018-05-23T14:18:34.788Z,35.10
2018-05-23T14:21:02.224Z,35.00
2018-05-23T14:23:29.672Z,34.20
2018-05-23T14:25:57.359Z,33.40
2018-05-23T14:28:24.865Z,32.50
2018-05-23T14:30:52.288Z,31.90
2018-05-23T14:33:19.730Z,31.30
2018-05-23T14:35:47.247Z,30.80
2018-05-23T14:38:14.646Z,30.20
2018-05-23T14:40:42.095Z,28.90
2018-05-23T14:43:09.684Z,27.40
2018-05-23T14:45:37.143Z,26.20
2018-05-23T14:48:04.609Z,25.40
2018-05-23T14:50:32.052Z,24.90
2018-05-23T14:52:59.527Z,24.60
2018-05-23T14:55:27.077Z,24.40
2018-05-23T14:57:54.530Z,24.10
2018-05-23T15:00:22.726Z,23.40
2018-05-23T15:02:50.179Z,23.30
2018-05-23T15:05:17.621Z,23.10
2018-05-23T15:07:45.064Z,22.90
2018-05-23T15:10:12.542Z,22.60
2018-05-23T15:12:40.745Z,22.30
2018-05-23T15:15:08.217Z,22.20
2018-05-23T15:17:35.664Z,22.30
2018-05-23T15:20:03.153Z,22.20
2018-05-23T15:22:30.556Z,22.30
2018-05-23T15:24:58.007Z,22.20
2018-05-23T15:27:25.455Z,22.10
2018-05-23T15:29:53.025Z,21.90
2018-05-23T15:32:20.499Z,21.60
2018-05-23T15:34:47.968Z,21.30
2018-05-23T15:37:15.411Z,21.10
2018-05-23T15:39:42.855Z,21.00
2018-05-23T15:42:10.306Z,20.90
2018-05-23T15:44:37.756Z,20.80
2018-05-23T15:47:05.283Z,20.70
2018-05-23T15:49:33.511Z,20.70
2018-05-23T15:52:01.030Z,20.70
2018-05-23T15:54:29.271Z,20.70
2018-05-23T15:56:56.791Z,20.80
2018-05-23T15:59:24.250Z,20.70
2018-05-23T16:04:22.833Z,20.60
2018-05-23T16:06:50.289Z,20.60
2018-05-23T16:09:17.760Z,20.50
2018-05-23T16:11:45.208Z,20.50
2018-05-23T16:14:12.672Z,20.50
2018-05-23T16:16:40.120Z,20.60
2018-05-23T16:19:07.994Z,20.60
2018-05-23T16:21:35.461Z,20.70
2018-05-23T16:24:03.668Z,20.70
2018-05-23T16:26:31.141Z,20.60
2018-05-23T16:28:58.621Z,20.70
2018-05-23T16:31:26.118Z,20.70
2018-05-23T16:33:53.569Z,20.70
2018-05-23T16:36:21.031Z,20.70
2018-05-23T16:38:48.479Z,20.70
2018-05-23T16:41:15.987Z,20.70
2018-05-23T16:43:43.443Z,20.70
2018-05-23T16:46:11.021Z,20.70
2018-05-23T16:48:39.568Z,20.70
2018-05-23T16:51:07.027Z,20.70
2018-05-23T16:53:34.527Z,20.70
2018-05-23T16:56:01.974Z,20.70
2018-05-23T16:58:29.419Z,20.60
2018-05-23T17:00:56.861Z,20.60
2018-05-23T17:03:24.368Z,20.60
2018-05-23T17:05:51.833Z,20.60
2018-05-23T17:08:19.299Z,20.50
2018-05-23T17:10:46.749Z,20.40
2018-05-23T17:13:14.261Z,20.40
2018-05-23T17:15:41.733Z,20.30
2018-05-23T17:18:09.190Z,20.20
2018-05-23T17:20:36.979Z,20.20
2018-05-23T17:23:04.453Z,20.10
2018-05-23T17:25:31.914Z,20.00
2018-05-23T17:27:59.368Z,20.00
2018-05-23T17:30:26.897Z,19.90
2018-05-23T17:32:54.312Z,19.90
2018-05-23T17:35:21.771Z,19.80
2018-05-23T17:37:49.240Z,19.80
2018-05-23T17:40:16.700Z,19.80
2018-05-23T17:42:44.136Z,19.70
2018-05-23T17:45:11.592Z,19.70
2018-05-23T17:47:39.037Z,19.70
2018-05-23T17:50:06.602Z,19.60
2018-05-23T17:52:34.039Z,19.60
2018-05-23T17:55:01.509Z,19.60
2018-05-23T17:57:28.964Z,19.50
2018-05-23T17:59:56.412Z,19.50
2018-05-23T18:02:23.863Z,19.50
2018-05-23T18:04:51.700Z,19.50
2018-05-23T18:07:19.160Z,19.50
2018-05-23T18:09:46.640Z,19.50
2018-05-23T18:12:14.577Z,19.50
2018-05-23T18:14:41.986Z,19.50
2018-05-23T18:17:09.815Z,19.50
2018-05-23T18:19:37.357Z,19.50
2018-05-23T18:22:04.819Z,19.50
2018-05-23T18:24:32.289Z,19.40
2018-05-23T18:26:59.712Z,19.50
2018-05-23T18:29:27.968Z,19.40
2018-05-23T18:31:55.397Z,19.30
2018-05-23T18:34:22.836Z,19.40
2018-05-23T18:36:50.348Z,19.40
2018-05-23T18:39:17.795Z,19.40
2018-05-23T18:41:45.278Z,19.40
2018-05-23T18:44:12.719Z,19.40
2018-05-23T18:46:40.160Z,19.40
2018-05-23T18:49:07.633Z,19.40
2018-05-23T18:51:35.178Z,19.40
2018-05-23T18:54:02.641Z,19.50
2018-05-23T18:56:30.091Z,19.40
2018-05-23T18:58:57.517Z,19.40
2018-05-23T19:01:25.093Z,19.40
2018-05-23T19:03:53.318Z,19.40
2018-05-23T19:06:20.785Z,19.30
2018-05-23T19:08:48.239Z,19.40
2018-05-23T19:11:15.693Z,19.30
2018-05-23T19:13:43.317Z,19.30
2018-05-23T19:16:10.764Z,19.30
2018-05-23T19:18:38.534Z,19.30
2018-05-23T19:21:05.895Z,19.30
2018-05-23T19:23:33.332Z,19.30
2018-05-23T19:26:00.796Z,19.20
2018-05-23T19:31:12.074Z,19.20
2018-05-23T19:33:39.503Z,19.20
2018-05-23T19:36:07.168Z,19.20
2018-05-23T19:38:34.642Z,19.10
2018-05-23T19:41:02.253Z,19.10
2018-05-23T19:43:29.719Z,19.10
2018-05-23T19:45:57.256Z,19.00
2018-05-23T19:48:24.700Z,19.00
2018-05-23T19:50:52.187Z,19.00
2018-05-23T19:53:19.640Z,18.90
2018-05-23T19:55:47.100Z,18.90
2018-05-23T19:58:14.566Z,18.90
2018-05-23T20:00:42.040Z,18.90
2018-05-23T20:03:09.497Z,18.90
2018-05-23T20:05:36.940Z,18.90
2018-05-23T20:08:04.541Z,18.90
2018-05-23T20:10:31.859Z,18.90
2018-05-23T20:12:59.287Z,18.90
2018-05-23T20:15:26.747Z,18.90
2018-05-23T20:17:54.577Z,19.00
2018-05-23T20:20:22.048Z,18.90
2018-05-23T20:22:49.492Z,19.00
2018-05-23T20:25:16.943Z,19.00
2018-05-23T20:27:44.509Z,18.90
2018-05-23T20:30:11.930Z,18.90
2018-05-23T20:32:39.417Z,18.90
2018-05-23T20:35:07.060Z,18.90
2018-05-23T20:37:34.520Z,18.80
2018-05-23T20:40:02.241Z,18.80
2018-05-23T20:42:29.682Z,18.80
2018-05-23T20:44:57.150Z,18.90
2018-05-23T20:47:24.591Z,18.90
2018-05-23T20:49:52.401Z,18.90
2018-05-23T20:52:19.877Z,18.80
2018-05-23T20:54:47.344Z,18.80
2018-05-23T20:57:14.800Z,18.80
2018-05-23T20:59:42.266Z,18.80
2018-05-23T21:02:09.703Z,18.80
2018-05-23T21:04:37.171Z,18.80
2018-05-23T21:07:04.827Z,18.80
2018-05-23T21:09:32.303Z,18.70
2018-05-23T21:11:59.765Z,18.70
2018-05-23T21:14:27.206Z,18.70
2018-05-23T21:16:54.650Z,18.70
2018-05-23T21:19:22.353Z,18.70
2018-05-23T21:21:49.823Z,18.70
2018-05-23T21:24:17.277Z,18.70
2018-05-23T21:26:44.735Z,18.70
2018-05-23T21:29:12.208Z,18.70
2018-05-23T21:31:39.665Z,18.70
2018-05-23T21:34:07.360Z,18.70
2018-05-23T21:36:35.190Z,18.70
2018-05-23T21:39:02.640Z,18.70
2018-05-23T21:41:30.145Z,18.70
2018-05-23T21:43:57.811Z,18.70
2018-05-23T21:46:25.267Z,18.70
2018-05-23T21:48:52.704Z,18.70
2018-05-23T21:51:20.590Z,18.70
2018-05-23T21:53:48.047Z,18.70
2018-05-23T21:56:15.494Z,18.60
2018-05-23T21:58:43.410Z,18.60
2018-05-23T22:01:13.511Z,18.60
2018-05-23T22:03:41.177Z,18.50
2018-05-23T22:06:08.649Z,18.50
2018-05-23T22:08:36.083Z,18.50
2018-05-23T22:11:03.629Z,18.50
2018-05-23T22:13:31.076Z,18.50
2018-05-23T22:15:58.879Z,18.50
2018-05-23T22:18:26.781Z,18.50
2018-05-23T22:20:54.196Z,18.40
2018-05-23T22:23:21.651Z,18.40
2018-05-23T22:25:49.093Z,18.40
2018-05-23T22:28:16.553Z,18.30
2018-05-23T22:30:44.090Z,18.30
2018-05-23T22:33:11.688Z,18.30
2018-05-23T22:35:39.232Z,18.30
2018-05-23T22:38:06.708Z,18.30
2018-05-23T22:40:34.717Z,18.20
2018-05-23T22:43:02.200Z,18.20
2018-05-23T22:45:30.070Z,18.20
2018-05-23T22:47:57.525Z,18.20
2018-05-23T22:50:24.960Z,18.10
2018-05-23T22:52:52.403Z,18.10
2018-05-23T22:55:19.859Z,18.00
2018-05-23T22:57:47.356Z,18.00
2018-05-23T23:00:17.528Z,17.90
2018-05-23T23:02:45.186Z,17.80
2018-05-23T23:05:12.856Z,17.80
2018-05-23T23:07:40.571Z,17.80
2018-05-23T23:10:08.372Z,17.70
2018-05-23T23:12:35.837Z,17.70
2018-05-23T23:15:03.297Z,17.70
2018-05-23T23:17:30.823Z,17.60
2018-05-23T23:19:58.517Z,17.60
2018-05-23T23:22:40.836Z,17.60
2018-05-23T23:25:08.287Z,17.60
2018-05-23T23:27:35.740Z,17.60
2018-05-23T23:30:03.195Z,17.60
2018-05-23T23:32:30.667Z,17.60
2018-05-23T23:34:58.122Z,17.60
2018-05-23T23:37:25.632Z,17.60
2018-05-23T23:39:53.082Z,17.60
2018-05-23T23:42:20.527Z,17.50
2018-05-23T23:44:48.003Z,17.50
2018-05-23T23:47:15.852Z,17.50
2018-05-23T23:49:43.352Z,17.40
2018-05-23T23:52:10.788Z,17.40
2018-05-23T23:54:38.247Z,17.40
2018-05-23T23:57:05.697Z,17.40
2018-05-23T23:59:33.178Z,17.30
